createdAt,value
2023-02-01T00:00:27.893Z,0
2023-02-01T00:03:53.216Z,0
2023-02-01T00:07:18.413Z,0
2023-02-01T00:10:43.721Z,0
2023-02-01T00:14:08.903Z,0
2023-02-01T00:17:34.140Z,0
2023-02-01T00:20:59.394Z,0
2023-02-01T00:24:24.642Z,0
2023-02-01T00:27:49.948Z,0
2023-02-01T00:31:15.271Z,0
2023-02-01T00:34:40.387Z,0
2023-02-01T00:38:05.627Z,0
2023-02-01T00:41:30.915Z,0
2023-02-01T00:44:56.217Z,0
2023-02-01T00:48:21.468Z,0
2023-02-01T00:51:46.721Z,0
2023-02-01T00:55:11.960Z,0
2023-02-01T00:58:37.227Z,0
2023-02-01T01:02:02.564Z,0
2023-02-01T01:05:27.746Z,0
2023-02-01T01:08:52.984Z,0
2023-02-01T01:12:18.159Z,0
2023-02-01T01:15:43.452Z,0
2023-02-01T01:19:08.679Z,0
2023-02-01T01:22:33.869Z,0
2023-02-01T01:25:59.044Z,0
2023-02-01T01:29:24.259Z,0
2023-02-01T01:32:49.440Z,0
2023-02-01T01:36:14.608Z,0
2023-02-01T01:39:39.769Z,0
2023-02-01T01:43:04.965Z,0
2023-02-01T01:46:30.211Z,0
2023-02-01T01:49:55.313Z,0
2023-02-01T01:53:20.553Z,0
2023-02-01T01:56:45.759Z,0
2023-02-01T02:00:11.004Z,0
2023-02-01T02:03:36.275Z,0
2023-02-01T02:07:01.521Z,0
2023-02-01T02:10:26.806Z,0
2023-02-01T02:13:52.030Z,0
2023-02-01T02:17:17.276Z,0
2023-02-01T02:20:42.520Z,0
2023-02-01T02:24:07.790Z,0
2023-02-01T02:27:33.025Z,0
2023-02-01T02:30:58.342Z,0
2023-02-01T02:34:23.518Z,0
2023-02-01T02:37:48.791Z,0
2023-02-01T02:41:14.021Z,0
2023-02-01T02:44:39.326Z,0
2023-02-01T02:48:04.558Z,0
2023-02-01T02:51:29.778Z,0
2023-02-01T02:54:55.065Z,0
2023-02-01T02:58:20.306Z,0
2023-02-01T03:01:45.619Z,0
2023-02-01T03:05:10.848Z,0
2023-02-01T03:08:36.145Z,0
2023-02-01T03:12:01.399Z,0
2023-02-01T03:15:26.671Z,0
2023-02-01T03:18:51.953Z,0
2023-02-01T03:22:17.183Z,0
2023-02-01T03:25:42.477Z,0
2023-02-01T03:29:07.755Z,0
2023-02-01T03:32:33.010Z,0
2023-02-01T03:35:58.362Z,0
2023-02-01T03:39:23.574Z,0
2023-02-01T03:42:48.808Z,0
2023-02-01T03:46:14.079Z,0
2023-02-01T03:49:39.305Z,0
2023-02-01T03:53:07.396Z,0
2023-02-01T03:56:32.633Z,0
2023-02-01T03:59:57.919Z,0
2023-02-01T04:03:23.192Z,0
2023-02-01T04:06:48.421Z,0
2023-02-01T04:10:13.625Z,0
2023-02-01T04:13:38.847Z,0
2023-02-01T04:17:04.114Z,0
2023-02-01T04:20:29.340Z,0
2023-02-01T04:23:54.503Z,0
2023-02-01T04:27:19.758Z,0
2023-02-01T04:30:45.105Z,0
2023-02-01T04:34:10.273Z,0
2023-02-01T04:37:36.896Z,0
2023-02-01T04:41:02.397Z,0
2023-02-01T04:44:27.458Z,0
2023-02-01T04:47:52.585Z,0
2023-02-01T04:51:17.741Z,0
2023-02-01T04:54:42.901Z,0
2023-02-01T04:58:08.074Z,0
2023-02-01T05:01:33.349Z,0
2023-02-01T05:04:58.409Z,0
2023-02-01T05:08:23.543Z,0
2023-02-01T05:11:48.712Z,0
2023-02-01T05:15:13.878Z,0
2023-02-01T05:18:39.092Z,0
2023-02-01T05:22:04.214Z,5
2023-02-01T05:25:29.378Z,5
2023-02-01T05:28:54.617Z,0
2023-02-01T05:32:22.442Z,0
2023-02-01T05:35:44.968Z,0
2023-02-01T05:39:10.154Z,0
2023-02-01T05:42:35.311Z,0
2023-02-01T05:46:00.567Z,0
2023-02-01T05:49:25.685Z,0
2023-02-01T05:52:50.927Z,0
2023-02-01T05:56:16.062Z,0
2023-02-01T05:59:43.867Z,5
2023-02-01T06:03:09.119Z,5
2023-02-01T06:06:34.345Z,0
2023-02-01T06:09:59.555Z,0
2023-02-01T06:13:24.711Z,0
2023-02-01T06:16:49.855Z,1
2023-02-01T06:20:15.055Z,0
2023-02-01T06:23:40.237Z,1
2023-02-01T06:27:05.400Z,2
2023-02-01T06:30:30.552Z,3
2023-02-01T06:33:55.721Z,5
2023-02-01T06:37:20.853Z,10
2023-02-01T06:40:46.053Z,20
2023-02-01T06:44:11.219Z,32
2023-02-01T06:47:36.353Z,50
2023-02-01T06:51:01.541Z,54
2023-02-01T06:54:26.691Z,79
2023-02-01T06:57:51.851Z,109
2023-02-01T07:01:17.056Z,138
2023-02-01T07:04:42.227Z,179
2023-02-01T07:08:07.438Z,205
2023-02-01T07:11:32.589Z,216
2023-02-01T07:14:57.771Z,234
2023-02-01T07:18:22.957Z,229
2023-02-01T07:21:48.089Z,255
2023-02-01T07:25:13.274Z,270
2023-02-01T07:28:38.443Z,393
2023-02-01T07:32:03.603Z,739
2023-02-01T07:35:28.787Z,794
2023-02-01T07:38:56.450Z,451
2023-02-01T07:42:19.085Z,425
2023-02-01T07:45:44.333Z,546
2023-02-01T07:49:09.476Z,733
2023-02-01T07:52:34.747Z,534
2023-02-01T07:55:59.945Z,760
2023-02-01T07:59:25.222Z,707
2023-02-01T08:02:50.429Z,1238
2023-02-01T08:06:15.655Z,1471
2023-02-01T08:09:40.864Z,728
2023-02-01T08:13:06.012Z,731
2023-02-01T08:16:31.194Z,1166
2023-02-01T08:19:56.328Z,516
2023-02-01T08:23:21.524Z,1052
2023-02-01T08:26:46.912Z,1057
2023-02-01T08:30:11.901Z,1100
2023-02-01T08:33:37.066Z,1156
2023-02-01T08:37:02.311Z,1064
2023-02-01T08:40:27.563Z,1270
2023-02-01T08:43:52.846Z,781
2023-02-01T08:47:18.020Z,853
2023-02-01T08:50:43.279Z,944
2023-02-01T08:54:08.532Z,1026
2023-02-01T08:57:33.737Z,839
2023-02-01T09:00:58.985Z,2669
2023-02-01T09:04:24.170Z,2150
2023-02-01T09:07:49.299Z,2442
2023-02-01T09:11:14.500Z,3166
2023-02-01T09:14:39.730Z,3035
2023-02-01T09:18:05.004Z,2604
2023-02-01T09:21:30.027Z,1736
2023-02-01T09:24:55.476Z,1896
2023-02-01T09:28:20.373Z,2694
2023-02-01T09:31:53.641Z,1854
2023-02-01T09:35:10.782Z,1700
2023-02-01T09:38:38.816Z,1324
2023-02-01T09:42:01.220Z,1702
2023-02-01T09:45:26.413Z,1437
2023-02-01T09:48:51.665Z,2221
2023-02-01T09:52:16.897Z,1954
2023-02-01T09:55:42.148Z,1414
2023-02-01T09:59:07.429Z,1114
2023-02-01T10:02:32.701Z,1554
2023-02-01T10:05:57.948Z,1237
2023-02-01T10:09:23.292Z,1914
2023-02-01T10:12:48.514Z,3113
2023-02-01T10:16:13.956Z,2534
2023-02-01T10:19:39.020Z,3016
2023-02-01T10:23:22.939Z,2894
2023-02-01T10:26:29.524Z,2531
2023-02-01T10:29:54.766Z,2902
2023-02-01T10:33:20.063Z,2368
2023-02-01T10:36:45.387Z,1744
2023-02-01T10:40:10.670Z,1710
2023-02-01T10:43:36.002Z,2158
2023-02-01T10:47:01.238Z,1703
2023-02-01T10:50:26.524Z,1513
2023-02-01T10:53:51.763Z,1916
2023-02-01T10:57:16.973Z,1785
2023-02-01T11:00:42.233Z,2499
2023-02-01T11:04:07.528Z,1588
2023-02-01T11:07:32.762Z,1824
2023-02-01T11:10:57.975Z,2923
2023-02-01T11:14:23.243Z,2523
2023-02-01T11:17:48.486Z,2345
2023-02-01T11:21:13.714Z,2780
2023-02-01T11:24:38.963Z,2442
2023-02-01T11:28:04.200Z,2338
2023-02-01T11:31:29.501Z,1800
2023-02-01T11:34:54.750Z,2062
2023-02-01T11:38:19.963Z,1550
2023-02-01T11:41:45.199Z,1436
2023-02-01T11:45:10.429Z,2294
2023-02-01T11:48:35.688Z,1321
2023-02-01T11:52:00.924Z,2173
2023-02-01T11:55:26.141Z,2007
2023-02-01T11:58:51.375Z,1927
2023-02-01T12:02:16.629Z,1840
2023-02-01T12:05:41.841Z,1524
2023-02-01T12:09:07.097Z,1602
2023-02-01T12:12:32.329Z,1698
2023-02-01T12:15:57.613Z,1430
2023-02-01T12:19:23.475Z,1596
2023-02-01T12:22:48.685Z,1574
2023-02-01T12:26:13.963Z,1855
2023-02-01T12:29:39.176Z,1658
2023-02-01T12:33:04.458Z,1299
2023-02-01T12:36:29.749Z,1688
2023-02-01T12:39:55.001Z,1630
2023-02-01T12:43:20.228Z,1324
2023-02-01T12:46:45.445Z,1732
2023-02-01T12:50:10.732Z,1822
2023-02-01T12:53:35.987Z,1905
2023-02-01T12:57:01.264Z,1480
2023-02-01T13:00:26.763Z,2288
2023-02-01T13:03:51.719Z,2403
2023-02-01T13:07:17.949Z,1465
2023-02-01T13:10:42.163Z,1502
2023-02-01T13:14:07.469Z,1336
2023-02-01T13:17:32.738Z,1299
2023-02-01T13:20:57.950Z,1178
2023-02-01T13:24:23.199Z,786
2023-02-01T13:27:48.470Z,969
2023-02-01T13:31:13.878Z,988
2023-02-01T13:34:39.081Z,761
2023-02-01T13:38:04.349Z,1111
2023-02-01T13:41:29.591Z,1542
2023-02-01T13:44:54.860Z,1909
2023-02-01T13:48:20.153Z,1937
2023-02-01T13:51:45.431Z,1825
2023-02-01T13:55:10.769Z,1929
2023-02-01T13:58:35.991Z,2534
2023-02-01T14:02:01.202Z,3255
2023-02-01T14:05:29.187Z,2934
2023-02-01T14:08:54.485Z,2306
2023-02-01T14:12:19.692Z,2243
2023-02-01T14:15:45.061Z,1901
2023-02-01T14:19:10.320Z,1776
2023-02-01T14:22:35.638Z,1520
2023-02-01T14:26:00.978Z,1105
2023-02-01T14:29:26.236Z,871
2023-02-01T15:04:32.911Z,72
2023-02-01T15:07:59.043Z,471
2023-02-01T15:11:23.402Z,746
2023-02-01T15:14:54.549Z,500
2023-02-01T15:18:19.913Z,489
2023-02-01T15:21:45.204Z,335
2023-02-01T15:25:10.477Z,206
2023-02-01T15:28:35.697Z,136
2023-02-01T15:32:00.983Z,85
2023-02-01T15:35:26.170Z,87
2023-02-01T15:38:51.525Z,66
2023-02-01T15:42:16.746Z,59
2023-02-01T15:45:41.973Z,66
2023-02-01T15:49:07.237Z,60
2023-02-01T15:52:32.447Z,50
2023-02-01T15:55:57.734Z,60
2023-02-01T15:59:22.938Z,56
2023-02-01T16:02:48.217Z,48
2023-02-01T16:06:14.295Z,27
2023-02-01T16:09:39.487Z,14
2023-02-01T16:13:04.829Z,9
2023-02-01T16:16:30.112Z,6
2023-02-01T16:19:55.284Z,4
2023-02-01T16:23:20.533Z,3
2023-02-01T16:26:45.841Z,1
2023-02-01T16:30:11.115Z,1
2023-02-01T16:33:36.328Z,1
2023-02-01T16:37:01.597Z,0
2023-02-01T16:40:26.921Z,0
2023-02-01T16:43:52.212Z,0
2023-02-01T16:47:17.489Z,0
2023-02-01T16:50:42.753Z,0
2023-02-01T16:54:08.293Z,0
2023-02-01T16:57:33.247Z,0
2023-02-01T17:00:58.542Z,0
2023-02-01T17:04:23.908Z,0
2023-02-01T17:07:49.037Z,0
2023-02-01T17:11:14.315Z,0
2023-02-01T17:14:39.570Z,0
2023-02-01T17:18:04.802Z,0
2023-02-01T17:21:30.076Z,0
2023-02-01T17:24:55.349Z,0
2023-02-01T17:28:20.637Z,0
2023-02-01T17:31:46.061Z,0
2023-02-01T17:35:11.216Z,0
2023-02-01T17:38:36.688Z,0
2023-02-01T17:42:01.922Z,0
2023-02-01T17:45:27.269Z,0
2023-02-01T17:48:52.488Z,0
2023-02-01T17:52:17.765Z,0
2023-02-01T17:55:43.128Z,0
2023-02-01T17:59:08.406Z,0
2023-02-01T18:02:33.788Z,0
2023-02-01T18:05:58.984Z,0
2023-02-01T18:09:24.267Z,0
2023-02-01T18:12:49.585Z,0
2023-02-01T18:16:14.861Z,0
2023-02-01T18:19:40.171Z,0
2023-02-01T18:23:05.422Z,0
2023-02-01T18:26:30.744Z,0
2023-02-01T18:29:55.966Z,0
2023-02-01T18:33:21.220Z,0
2023-02-01T18:36:46.486Z,0
2023-02-01T18:40:11.837Z,0
2023-02-01T18:43:37.045Z,0
2023-02-01T18:47:02.312Z,0
2023-02-01T18:50:27.543Z,0
2023-02-01T18:53:52.789Z,0
2023-02-01T18:57:18.073Z,0
2023-02-01T19:00:43.323Z,0
2023-02-01T19:04:09.926Z,0
2023-02-01T19:07:33.841Z,0
2023-02-01T19:10:59.103Z,0
2023-02-01T19:14:24.348Z,0
2023-02-01T19:17:49.548Z,0
2023-02-01T19:21:14.810Z,0
2023-02-01T19:24:40.056Z,0
2023-02-01T19:28:05.288Z,0
2023-02-01T19:31:30.716Z,0
2023-02-01T19:34:55.815Z,0
2023-02-01T19:38:21.104Z,0
2023-02-01T19:41:46.328Z,0
2023-02-01T19:45:11.611Z,0
2023-02-01T19:48:36.836Z,0
2023-02-01T19:52:02.073Z,0
2023-02-01T19:55:27.408Z,0
2023-02-01T19:58:52.637Z,0
2023-02-01T20:02:18.034Z,0
2023-02-01T20:05:43.321Z,0
2023-02-01T20:09:08.558Z,0
2023-02-01T20:12:33.849Z,0
2023-02-01T20:15:59.177Z,0
2023-02-01T20:19:24.346Z,0
2023-02-01T20:22:49.617Z,0
2023-02-01T20:26:15.734Z,0
2023-02-01T20:29:40.977Z,0
2023-02-01T20:33:06.190Z,0
2023-02-01T20:36:31.440Z,0
2023-02-01T20:39:56.715Z,0
2023-02-01T20:43:22.032Z,0
2023-02-01T20:46:47.338Z,0
2023-02-01T20:50:12.543Z,0
2023-02-01T20:53:37.732Z,0
2023-02-01T20:57:02.941Z,0
2023-02-01T21:00:28.139Z,0
2023-02-01T21:03:53.293Z,0
2023-02-01T21:07:18.450Z,0
2023-02-01T21:10:43.659Z,0
2023-02-01T21:14:08.826Z,0
2023-02-01T21:17:34.004Z,0
2023-02-01T21:20:59.214Z,0
2023-02-01T21:24:24.375Z,0
2023-02-01T21:27:49.554Z,0
2023-02-01T21:31:14.821Z,0
2023-02-01T21:34:39.902Z,0
2023-02-01T21:38:05.126Z,0
2023-02-01T21:41:30.288Z,0
2023-02-01T21:44:55.465Z,0
2023-02-01T21:48:20.653Z,0
2023-02-01T21:51:45.844Z,0
2023-02-01T21:55:11.053Z,0
2023-02-01T21:58:36.208Z,0
2023-02-01T22:02:01.485Z,0
2023-02-01T22:05:26.748Z,0
2023-02-01T22:08:51.790Z,0
2023-02-01T22:12:17.008Z,0
2023-02-01T22:15:42.142Z,0
2023-02-01T22:19:07.317Z,0
2023-02-01T22:22:32.475Z,0
2023-02-01T22:25:57.653Z,0
2023-02-01T22:29:22.850Z,0
2023-02-01T22:32:48.011Z,0
2023-02-01T22:36:13.181Z,0
2023-02-01T22:39:38.378Z,0
2023-02-01T22:43:03.547Z,0
2023-02-01T22:46:28.789Z,0
2023-02-01T22:49:53.885Z,0
2023-02-01T22:53:19.074Z,0
2023-02-01T22:56:44.224Z,0
2023-02-01T23:00:09.420Z,0
2023-02-01T23:03:34.657Z,0
2023-02-01T23:06:59.761Z,0
2023-02-01T23:10:24.929Z,0
2023-02-01T23:13:50.120Z,0
2023-02-01T23:17:15.294Z,0
2023-02-01T23:20:40.504Z,0
2023-02-01T23:24:05.683Z,0
2023-02-01T23:27:30.837Z,0
2023-02-01T23:30:56.147Z,0
2023-02-01T23:34:21.211Z,0
2023-02-01T23:37:46.425Z,0
2023-02-01T23:41:11.586Z,0
2023-02-01T23:44:36.759Z,0
2023-02-01T23:48:01.976Z,0
2023-02-01T23:51:27.161Z,0
2023-02-01T23:54:52.343Z,0
2023-02-01T23:58:17.500Z,0
